LS226 EGPH-EGNT
Flight info
| Callsign | LS226 |
|---|---|
| Flight time | 0h 25m |
| Altitude | 14000 |
| Route | TLA Y96 NATEB |
| Aircraft | B738/M-SDE2E3FGHIRWXY/LB1 |
Departure
| Time | 2026-04-23 12:06 |
|---|---|
| Airport | Edinburgh Airport (EGPH) |
Arrival
| Time | 2026-04-23 12:32 |
|---|---|
| Airport | Newcastle International Airport (EGNT) |
| Time | Latitude | Longitude | Altitude | Speed | Heading |
|---|---|---|---|---|---|
| 2026-04-23 11:40 | 55.94923 | -3.36432 | 102 ft | 0 kts | 148° |
| 2026-04-23 11:57 | 55.94932 | -3.36444 | 102 ft | 2 kts | 141° |
| 2026-04-23 11:57 | 55.94944 | -3.36460 | 102 ft | 2 kts | 145° |
| 2026-04-23 11:57 | 55.94956 | -3.36475 | 102 ft | 2 kts | 144° |
| 2026-04-23 11:58 | 55.94968 | -3.36491 | 102 ft | 2 kts | 144° |
| 2026-04-23 11:58 | 55.94976 | -3.36501 | 102 ft | 1 kts | 180° |
| 2026-04-23 11:58 | 55.94984 | -3.36495 | 102 ft | 0 kts | 232° |
| 2026-04-23 11:58 | 55.94987 | -3.36486 | 102 ft | 1 kts | 243° |
| 2026-04-23 11:59 | 55.94988 | -3.36482 | 102 ft | 0 kts | 240° |
| 2026-04-23 12:02 | 55.94964 | -3.36549 | 102 ft | 10 kts | 236° |
| 2026-04-23 12:03 | 55.94918 | -3.36678 | 101 ft | 13 kts | 240° |
| 2026-04-23 12:03 | 55.94916 | -3.36849 | 100 ft | 14 kts | 284° |
| 2026-04-23 12:03 | 55.94881 | -3.37029 | 100 ft | 16 kts | 241° |
| 2026-04-23 12:03 | 55.94820 | -3.37208 | 101 ft | 17 kts | 239° |
| 2026-04-23 12:04 | 55.94752 | -3.37413 | 101 ft | 20 kts | 240° |
| 2026-04-23 12:04 | 55.94673 | -3.37636 | 102 ft | 22 kts | 236° |
| 2026-04-23 12:04 | 55.94591 | -3.37876 | 105 ft | 23 kts | 239° |
| 2026-04-23 12:04 | 55.94508 | -3.38132 | 108 ft | 24 kts | 240° |
| 2026-04-23 12:05 | 55.94416 | -3.38398 | 110 ft | 25 kts | 242° |
| 2026-04-23 12:05 | 55.94322 | -3.38673 | 112 ft | 25 kts | 239° |
| 2026-04-23 12:05 | 55.94295 | -3.38865 | 115 ft | 15 kts | 309° |
| 2026-04-23 12:05 | 55.94405 | -3.38955 | 113 ft | 19 kts | 14° |
| 2026-04-23 12:06 | 55.94526 | -3.38649 | 108 ft | 65 kts | 58° |
| 2026-04-23 12:06 | 55.94932 | -3.37465 | 126 ft | 153 kts | 58° |
| 2026-04-23 12:06 | 55.96149 | -3.33979 | 1675 ft | 185 kts | 52° |
| 2026-04-23 12:07 | 55.97116 | -3.32383 | 2335 ft | 198 kts | 43° |
| 2026-04-23 12:07 | 55.98203 | -3.30708 | 2880 ft | 219 kts | 44° |
| 2026-04-23 12:07 | 55.99366 | -3.28836 | 3508 ft | 238 kts | 44° |
| 2026-04-23 12:07 | 56.00629 | -3.26784 | 4213 ft | 255 kts | 44° |
| 2026-04-23 12:08 | 56.01969 | -3.24610 | 5020 ft | 267 kts | 44° |
| 2026-04-23 12:08 | 56.03363 | -3.22356 | 5684 ft | 274 kts | 43° |
| 2026-04-23 12:08 | 56.04764 | -3.20047 | 5947 ft | 278 kts | 48° |
| 2026-04-23 12:08 | 56.05712 | -3.17031 | 6404 ft | 288 kts | 81° |
| 2026-04-23 12:09 | 56.05699 | -3.13566 | 7617 ft | 279 kts | 99° |
| 2026-04-23 12:09 | 56.05205 | -3.10283 | 8560 ft | 279 kts | 118° |
| 2026-04-23 12:09 | 56.03988 | -3.07622 | 9433 ft | 281 kts | 142° |
| 2026-04-23 12:09 | 56.02418 | -3.05614 | 10301 ft | 284 kts | 146° |
| 2026-04-23 12:10 | 56.00786 | -3.03538 | 11040 ft | 293 kts | 144° |
| 2026-04-23 12:10 | 55.99118 | -3.01332 | 11594 ft | 309 kts | 144° |
| 2026-04-23 12:10 | 55.97347 | -2.99025 | 12088 ft | 325 kts | 148° |
| 2026-04-23 12:10 | 55.95202 | -2.97570 | 12527 ft | 341 kts | 172° |
| 2026-04-23 12:11 | 55.92801 | -2.97846 | 12955 ft | 357 kts | 195° |
| 2026-04-23 12:11 | 55.90551 | -2.99771 | 13346 ft | 374 kts | 214° |
| 2026-04-23 12:11 | 55.88438 | -3.02605 | 13815 ft | 387 kts | 220° |
| 2026-04-23 12:11 | 55.86322 | -3.05677 | 14365 ft | 393 kts | 216° |
| 2026-04-23 12:12 | 55.84021 | -3.08302 | 14502 ft | 395 kts | 210° |
| 2026-04-23 12:12 | 55.81590 | -3.10530 | 14495 ft | 393 kts | 205° |
| 2026-04-23 12:12 | 55.79134 | -3.12509 | 14489 ft | 393 kts | 204° |
| 2026-04-23 12:12 | 55.76610 | -3.14434 | 14485 ft | 393 kts | 203° |
| 2026-04-23 12:13 | 55.74106 | -3.16326 | 14484 ft | 392 kts | 203° |
| 2026-04-23 12:13 | 55.71622 | -3.18222 | 14480 ft | 392 kts | 204° |
| 2026-04-23 12:13 | 55.69138 | -3.20144 | 14477 ft | 391 kts | 204° |
| 2026-04-23 12:13 | 55.66633 | -3.22103 | 14480 ft | 393 kts | 204° |
| 2026-04-23 12:14 | 55.64154 | -3.24054 | 14480 ft | 393 kts | 204° |
| 2026-04-23 12:14 | 55.61641 | -3.25948 | 14480 ft | 393 kts | 200° |
| 2026-04-23 12:14 | 55.59024 | -3.27192 | 14474 ft | 392 kts | 187° |
| 2026-04-23 12:14 | 55.56297 | -3.27053 | 14463 ft | 391 kts | 169° |
| 2026-04-23 12:15 | 55.53741 | -3.25530 | 14459 ft | 392 kts | 154° |
| 2026-04-23 12:15 | 55.51437 | -3.23014 | 14456 ft | 393 kts | 144° |
| 2026-04-23 12:15 | 55.49429 | -3.19783 | 14453 ft | 393 kts | 131° |
| 2026-04-23 12:15 | 55.48016 | -3.15682 | 14455 ft | 394 kts | 113° |
| 2026-04-23 12:16 | 55.47270 | -3.11038 | 14460 ft | 395 kts | 102° |
| 2026-04-23 12:16 | 55.46745 | -3.06292 | 14461 ft | 395 kts | 101° |
| 2026-04-23 12:16 | 55.46167 | -3.01553 | 14465 ft | 395 kts | 105° |
| 2026-04-23 12:16 | 55.45290 | -2.97023 | 14454 ft | 394 kts | 113° |
| 2026-04-23 12:17 | 55.44107 | -2.92650 | 14454 ft | 393 kts | 118° |
| 2026-04-23 12:17 | 55.42801 | -2.88499 | 14466 ft | 393 kts | 120° |
| 2026-04-23 12:17 | 55.41425 | -2.84355 | 14461 ft | 392 kts | 121° |
| 2026-04-23 12:17 | 55.40034 | -2.80210 | 14462 ft | 393 kts | 121° |
| 2026-04-23 12:18 | 55.38665 | -2.76096 | 14463 ft | 392 kts | 120° |
| 2026-04-23 12:18 | 55.37309 | -2.71969 | 14467 ft | 393 kts | 120° |
| 2026-04-23 12:18 | 55.35962 | -2.67834 | 14467 ft | 392 kts | 120° |
| 2026-04-23 12:18 | 55.34605 | -2.63642 | 14469 ft | 393 kts | 120° |
| 2026-04-23 12:19 | 55.33250 | -2.59437 | 14089 ft | 400 kts | 120° |
| 2026-04-23 12:19 | 55.31892 | -2.55220 | 13505 ft | 394 kts | 120° |
| 2026-04-23 12:19 | 55.30579 | -2.51143 | 13206 ft | 382 kts | 120° |
| 2026-04-23 12:19 | 55.29252 | -2.47034 | 12803 ft | 391 kts | 120° |
| 2026-04-23 12:20 | 55.27908 | -2.42878 | 12211 ft | 390 kts | 120° |
| 2026-04-23 12:20 | 55.26591 | -2.38815 | 11780 ft | 379 kts | 120° |
| 2026-04-23 12:20 | 55.25320 | -2.34896 | 11522 ft | 364 kts | 121° |
| 2026-04-23 12:20 | 55.24102 | -2.31151 | 11377 ft | 347 kts | 121° |
| 2026-04-23 12:21 | 55.22932 | -2.27558 | 11228 ft | 333 kts | 121° |
| 2026-04-23 12:21 | 55.21808 | -2.24121 | 11063 ft | 319 kts | 121° |
| 2026-04-23 12:21 | 55.20732 | -2.20842 | 10924 ft | 307 kts | 121° |
| 2026-04-23 12:21 | 55.19696 | -2.17687 | 10785 ft | 296 kts | 121° |
| 2026-04-23 12:22 | 55.18689 | -2.14620 | 10626 ft | 286 kts | 121° |
| 2026-04-23 12:22 | 55.17707 | -2.11627 | 10317 ft | 283 kts | 121° |
| 2026-04-23 12:22 | 55.16730 | -2.08657 | 9939 ft | 282 kts | 121° |
| 2026-04-23 12:22 | 55.15767 | -2.05730 | 9600 ft | 280 kts | 121° |
| 2026-04-23 12:23 | 55.14793 | -2.02779 | 9250 ft | 278 kts | 121° |
| 2026-04-23 12:23 | 55.13837 | -1.99882 | 8911 ft | 276 kts | 121° |
| 2026-04-23 12:23 | 55.12886 | -1.96995 | 8576 ft | 270 kts | 120° |
| 2026-04-23 12:23 | 55.12150 | -1.94096 | 8398 ft | 259 kts | 107° |
| 2026-04-23 12:24 | 55.11867 | -1.91028 | 7918 ft | 260 kts | 95° |
| 2026-04-23 12:24 | 55.11795 | -1.87870 | 7420 ft | 261 kts | 93° |
| 2026-04-23 12:24 | 55.11730 | -1.84685 | 6911 ft | 262 kts | 94° |
| 2026-04-23 12:24 | 55.11628 | -1.81551 | 6415 ft | 261 kts | 95° |
| 2026-04-23 12:25 | 55.11499 | -1.78394 | 5913 ft | 259 kts | 95° |
| 2026-04-23 12:25 | 55.11362 | -1.75280 | 5408 ft | 257 kts | 95° |
| 2026-04-23 12:25 | 55.11226 | -1.72224 | 4893 ft | 255 kts | 95° |
| 2026-04-23 12:25 | 55.11088 | -1.69130 | 4309 ft | 255 kts | 95° |
| 2026-04-23 12:26 | 55.10954 | -1.66077 | 3744 ft | 248 kts | 95° |
| 2026-04-23 12:26 | 55.10829 | -1.63212 | 3156 ft | 233 kts | 95° |
| 2026-04-23 12:26 | 55.10708 | -1.60482 | 2638 ft | 218 kts | 95° |
| 2026-04-23 12:26 | 55.10594 | -1.57970 | 2419 ft | 194 kts | 95° |
| 2026-04-23 12:27 | 55.10493 | -1.55734 | 2448 ft | 182 kts | 95° |
| 2026-04-23 12:27 | 55.10392 | -1.53522 | 2443 ft | 180 kts | 95° |
| 2026-04-23 12:27 | 55.10294 | -1.51375 | 2442 ft | 179 kts | 95° |
| 2026-04-23 12:27 | 55.10074 | -1.49244 | 2434 ft | 178 kts | 116° |
| 2026-04-23 12:28 | 55.09162 | -1.47901 | 2445 ft | 179 kts | 159° |
| 2026-04-23 12:28 | 55.07959 | -1.47316 | 2444 ft | 180 kts | 169° |
| 2026-04-23 12:28 | 55.06761 | -1.47741 | 2433 ft | 182 kts | 214° |
| 2026-04-23 12:28 | 55.06188 | -1.49557 | 2435 ft | 171 kts | 268° |
| 2026-04-23 12:29 | 55.06573 | -1.51476 | 2445 ft | 171 kts | 301° |
| 2026-04-23 12:29 | 55.07215 | -1.53222 | 2421 ft | 170 kts | 302° |
| 2026-04-23 12:29 | 55.07621 | -1.55119 | 2221 ft | 168 kts | 270° |
| 2026-04-23 12:29 | 55.07444 | -1.57090 | 2011 ft | 164 kts | 241° |
| 2026-04-23 12:30 | 55.06718 | -1.58608 | 1937 ft | 161 kts | 224° |
| 2026-04-23 12:30 | 55.06083 | -1.60185 | 1932 ft | 150 kts | 240° |
| 2026-04-23 12:30 | 55.05728 | -1.61833 | 1661 ft | 150 kts | 250° |
| 2026-04-23 12:30 | 55.05318 | -1.63515 | 1141 ft | 155 kts | 238° |
| 2026-04-23 12:31 | 55.04796 | -1.65178 | 689 ft | 156 kts | 244° |
| 2026-04-23 12:31 | 55.04370 | -1.66836 | 377 ft | 146 kts | 243° |
| 2026-04-23 12:31 | 55.03963 | -1.68352 | 236 ft | 122 kts | 243° |
| 2026-04-23 12:31 | 55.03722 | -1.69242 | 245 ft | 68 kts | 246° |
| 2026-04-23 12:32 | 55.03594 | -1.69737 | 254 ft | 38 kts | 252° |
| 2026-04-23 12:32 | 55.03596 | -1.70083 | 258 ft | 30 kts | 274° |
| 2026-04-23 12:32 | 55.03603 | -1.70434 | 264 ft | 23 kts | 263° |
| 2026-04-23 12:32 | 55.03624 | -1.70624 | 267 ft | 13 kts | 340° |